»·PEaware :: N5VG KSNA-KEMT

N5VG :: KSNA-KEMT

FLIGHT INFORMATION

Flight Status: Arrived
Operator: Privately registered:
United States
More flights under this callsign
Pilot: John C. (9438)
Aircraft: BEECH AIRCRAFT BARON
(BE58)
More flights by this aircraft type
Origin: KSNA John Wayne-Orange Co
United States
Destination: KEMT El Monte
United States
More flights between these airports :: More routes between these airports
Route: SLI V8 POXKU V363 POM
File this flight plan on PilotEdge
Remarks: TEC route CSTP12
Altitude:
(Current/Filed)
5,000ft
Speed:
(Current/Filed)
160kts
Departed: 29-Apr-19 02:34 PM
Arrived: 29-Apr-19 03:05 PM
Distance/Time
Traveled:
26nm/0:31
Distance/Time
To Go:
Arrived

Flight Plot

Page will automatically refresh every two minutes.


Map Options




Map Legend


Flown Route
Filed Route
Departure Airport
Arrival Airport
Navaid (VOR, NDB)
Fix

Horizontal Profiles

Position Reports

Time Latitude Longitude Heading Altitude Ground
Speed
29-Apr-19 13:53 33.664745 -117.873760 38 59ft 0kts
29-Apr-19 13:54 33.664745 -117.873760 38 59ft 0kts
29-Apr-19 13:55 33.664745 -117.873760 38 59ft 0kts
29-Apr-19 13:56 33.664745 -117.873760 38 59ft 0kts
29-Apr-19 13:57 33.664745 -117.873760 38 59ft 0kts
29-Apr-19 13:59 33.664745 -117.873760 38 59ft 0kts
29-Apr-19 14:00 33.664745 -117.873760 38 59ft 0kts
29-Apr-19 14:01 33.664745 -117.873760 38 59ft 0kts
29-Apr-19 14:02 33.664745 -117.873760 38 59ft 0kts
29-Apr-19 14:03 33.664745 -117.873760 38 59ft 0kts
29-Apr-19 14:04 33.664745 -117.873760 38 59ft 0kts
29-Apr-19 14:05 33.664745 -117.873760 38 59ft 0kts
29-Apr-19 14:06 33.664745 -117.873760 38 59ft 0kts
29-Apr-19 14:07 33.664745 -117.873760 38 59ft 0kts
29-Apr-19 14:08 33.664745 -117.873760 38 59ft 0kts
29-Apr-19 14:09 33.664745 -117.873760 38 59ft 0kts
29-Apr-19 14:10 33.664745 -117.873760 38 59ft 0kts
29-Apr-19 14:11 33.664745 -117.873760 38 59ft 0kts
29-Apr-19 14:12 33.664745 -117.873760 38 59ft 0kts
29-Apr-19 14:13 33.664745 -117.873760 38 59ft 0kts
29-Apr-19 14:14 33.664745 -117.873760 38 59ft 0kts
29-Apr-19 14:15 33.664745 -117.873760 38 59ft 0kts
29-Apr-19 14:15 33.664745 -117.873760 38 59ft 0kts
29-Apr-19 14:17 33.664745 -117.873760 38 59ft 0kts
29-Apr-19 14:18 33.664745 -117.873760 38 59ft 0kts
29-Apr-19 14:19 33.664745 -117.873760 38 59ft 0kts
29-Apr-19 14:19 33.664745 -117.873760 38 59ft 0kts
29-Apr-19 14:21 33.664745 -117.873760 38 59ft 0kts
29-Apr-19 14:22 33.664745 -117.873760 38 59ft 0kts
29-Apr-19 14:22 33.664952 -117.873574 33 59ft 10kts
29-Apr-19 14:23 33.670214 -117.869739 41 59ft 25kts
29-Apr-19 14:25 33.675914 -117.865949 27 59ft 23kts
29-Apr-19 14:25 33.679765 -117.863516 7 59ft 7kts
29-Apr-19 14:26 33.681125 -117.865687 238 59ft 5kts
29-Apr-19 14:27 33.679977 -117.863545 301 59ft 0kts
29-Apr-19 14:28 33.679977 -117.863545 301 59ft 0kts
29-Apr-19 14:29 33.679977 -117.863545 301 59ft 0kts
29-Apr-19 14:30 33.679977 -117.863545 301 59ft 0kts
29-Apr-19 14:31 33.679977 -117.863545 301 59ft 0kts
29-Apr-19 14:32 33.679726 -117.864409 205 59ft 13kts
29-Apr-19 14:33 33.667014 -117.872424 222 581ft 98kts
29-Apr-19 14:34 33.650399 -117.898658 231 1978ft 110kts
29-Apr-19 14:35 33.625423 -117.938167 231 2006ft 172kts
29-Apr-19 14:36 33.596670 -117.983436 232 2864ft 133kts
29-Apr-19 14:37 33.571831 -118.022846 231 3674ft 149kts
29-Apr-19 14:38 33.547203 -118.062086 231 4488ft 151kts
29-Apr-19 14:39 33.532296 -118.108395 289 5006ft 170kts
29-Apr-19 14:40 33.575122 -118.126821 19 5002ft 186kts
29-Apr-19 14:41 33.625406 -118.107037 17 5000ft 189kts
29-Apr-19 14:42 33.673737 -118.081539 28 5000ft 188kts
29-Apr-19 14:43 33.720313 -118.052039 28 5000ft 186kts
29-Apr-19 14:44 33.766564 -118.022673 28 5000ft 186kts
29-Apr-19 14:45 33.801267 -117.978554 67 5000ft 183kts
29-Apr-19 14:46 33.818035 -117.920518 74 5000ft 182kts
29-Apr-19 14:47 33.833230 -117.861584 74 5000ft 182kts
29-Apr-19 14:48 33.848802 -117.802532 65 4997ft 183kts
29-Apr-19 14:49 33.894673 -117.783091 359 5001ft 186kts
29-Apr-19 14:50 33.947244 -117.784283 358 5000ft 186kts
29-Apr-19 14:51 33.999593 -117.785344 358 5000ft 187kts
29-Apr-19 14:52 34.052046 -117.786531 354 4999ft 187kts
29-Apr-19 14:53 34.079978 -117.831063 271 5002ft 180kts
29-Apr-19 14:54 34.088664 -117.891129 280 4995ft 182kts
29-Apr-19 14:55 34.087879 -117.950722 267 4731ft 167kts
29-Apr-19 14:56 34.088523 -118.003845 269 4201ft 146kts
29-Apr-19 14:57 34.089967 -118.052108 270 3414ft 141kts
29-Apr-19 14:58 34.064253 -118.069615 161 1925ft 133kts
29-Apr-19 14:59 34.055949 -118.077866 351 1088ft 98kts
29-Apr-19 15:00 34.080531 -118.075537 7 654ft 85kts
29-Apr-19 15:01 34.105875 -118.074131 23 1233ft 112kts
29-Apr-19 15:02 34.117931 -118.040185 96 1437ft 123kts
29-Apr-19 15:03 34.101756 -118.025246 210 858ft 87kts
29-Apr-19 15:04 34.086065 -118.034749 197 298ft 19kts
29-Apr-19 15:05 34.085348 -118.034659 126 298ft 0kts
29-Apr-19 15:06 34.085663 -118.033789 28 298ft 0kts
29-Apr-19 15:07 34.085722 -118.033751 28 298ft 0kts
29-Apr-19 15:08 34.085722 -118.033751 28 298ft 0kts

Navigation Log

Ident Type
Flight plan parsing failed, navigation log unavailable